Time;durP1;ratioP1;P1;durP2;ratioP2;P2;SDS_P1;SDS_P2;PMS_P1;PMS_P2;Temp;Humidity;BMP_temperature;BMP_pressure;BME280_temperature;BME280_humidity;BME280_pressure;Samples;Min_cycle;Max_cycle;Signal;HPM_P1;HPM_P2
2021/06/07 00:00:48;;;;;;;2.30;1.62;;;;;;;36.83;42.13;160889.25;1754523;82;21316;-87
2021/06/07 00:03:21;;;;;;;3.77;1.70;;;;;;;36.85;42.09;160894.61;1754853;82;21731;-87
2021/06/07 00:05:54;;;;;;;4.30;1.40;;;;;;;36.85;42.06;160894.61;1754542;82;21210;-85
2021/06/07 00:08:27;;;;;;;2.10;1.40;;;;;;;36.91;41.93;160910.70;1754442;81;21138;-87
2021/06/07 00:11:00;;;;;;;1.98;1.50;;;;;;;36.90;41.88;160908.02;1754393;82;21178;-86
2021/06/07 00:13:34;;;;;;;1.47;1.30;;;;;;;36.91;41.80;160912.06;1737719;82;21204;-88
2021/06/07 00:16:06;;;;;;;1.70;1.25;;;;;;;36.87;41.84;160901.28;1756216;81;21904;-86
2021/06/07 00:18:40;;;;;;;1.77;1.50;;;;;;;36.86;41.82;160898.61;1765105;81;21190;-87
2021/06/07 00:21:24;;;;;;;1.72;1.42;;;;;;;36.75;41.93;160869.16;1765185;81;21228;-87
2021/06/07 00:23:59;;;;;;;3.40;1.47;;;;;;;36.75;41.93;160869.16;1765082;81;21146;-87
2021/06/07 00:26:32;;;;;;;2.47;1.60;;;;;;;36.67;42.01;160846.39;1765199;81;21202;-86
2021/06/07 00:29:06;;;;;;;1.70;1.40;;;;;;;36.68;41.97;160849.08;1764861;81;21661;-86
2021/06/07 00:31:39;;;;;;;1.95;1.57;;;;;;;36.63;42.08;160835.72;1740262;80;21192;-86
2021/06/07 00:34:12;;;;;;;2.80;1.52;;;;;;;36.67;41.97;160846.39;1734518;83;21244;-86
2021/06/07 00:36:45;;;;;;;1.82;1.37;;;;;;;36.61;42.00;160831.67;1734592;83;21169;-86
2021/06/07 00:39:19;;;;;;;2.17;1.52;;;;;;;36.66;41.91;160843.72;1736742;81;21184;-85
2021/06/07 00:41:52;;;;;;;1.52;1.40;;;;;;;36.63;41.90;160837.03;1745124;81;21212;-86
2021/06/07 00:44:24;;;;;;;2.37;1.62;;;;;;;36.56;41.99;160816.95;1765213;80;21223;-86
2021/06/07 00:46:57;;;;;;;1.55;1.40;;;;;;;36.53;41.97;160810.28;1765174;81;21206;-87
2021/06/07 00:49:29;;;;;;;3.77;1.75;;;;;;;36.53;41.94;160810.28;1765200;81;21229;-86
2021/06/07 00:52:01;;;;;;;4.47;1.47;;;;;;;36.50;41.98;160800.92;1765218;81;21701;-86
2021/06/07 00:54:34;;;;;;;1.72;1.20;;;;;;;36.50;41.97;160800.92;1750135;81;21239;-86
2021/06/07 00:57:06;;;;;;;1.87;1.50;;;;;;;36.54;41.86;160812.95;1746425;81;21174;-86
2021/06/07 00:59:39;;;;;;;1.57;1.40;;;;;;;36.48;41.86;160796.88;1765196;81;21168;-85
2021/06/07 01:02:12;;;;;;;2.08;1.50;;;;;;;36.45;41.84;160787.50;1764870;81;21177;-87
2021/06/07 01:04:45;;;;;;;2.10;1.50;;;;;;;36.49;41.78;160799.55;1765077;81;21280;-86
2021/06/07 01:07:17;;;;;;;1.42;1.32;;;;;;;36.45;41.74;160787.50;1764795;81;21184;-87
2021/06/07 01:09:49;;;;;;;1.90;1.60;;;;;;;36.41;41.74;160778.09;1765370;81;21268;-86
2021/06/07 01:12:22;;;;;;;1.95;1.60;;;;;;;36.36;41.76;160764.69;1765120;81;21854;-86
2021/06/07 01:14:54;;;;;;;2.05;1.57;;;;;;;36.37;41.72;160767.38;1765217;81;21181;-86
2021/06/07 01:17:27;;;;;;;2.08;1.35;;;;;;;36.32;41.76;160752.66;1764512;81;21374;-87
2021/06/07 01:19:59;;;;;;;1.62;1.52;;;;;;;36.20;41.91;160721.91;1749750;81;21371;-88
2021/06/07 01:22:31;;;;;;;1.72;1.60;;;;;;;36.16;41.96;160711.19;1761591;81;21331;-87
2021/06/07 01:25:08;;;;;;;2.45;1.57;;;;;;;36.11;42.03;160696.47;1788314;80;21299;-86
2021/06/07 01:27:40;;;;;;;2.02;1.27;;;;;;;36.03;42.13;160675.09;1788724;80;21314;-87
2021/06/07 01:30:16;;;;;;;1.35;1.25;;;;;;;36.10;42.03;160695.16;1788861;80;21318;-86
2021/06/07 01:32:49;;;;;;;3.40;1.20;;;;;;;36.09;42.00;160691.11;1779628;80;21318;-86
2021/06/07 01:35:21;;;;;;;2.08;1.52;;;;;;;36.08;41.98;160689.80;1769585;81;21308;-86
2021/06/07 01:37:56;;;;;;;1.62;1.35;;;;;;;36.22;41.74;160727.28;1769758;81;21229;-86
2021/06/07 01:40:44;;;;;;;1.22;1.12;;;;;;;36.26;41.63;160737.94;1769925;81;21684;-86
2021/06/07 01:43:16;;;;;;;1.67;1.47;;;;;;;36.18;41.66;160715.19;1764273;81;21788;-86
2021/06/07 01:45:51;;;;;;;2.87;1.60;;;;;;;36.16;41.63;160711.19;1766561;81;21232;-85
2021/06/07 01:48:23;;;;;;;1.60;1.30;;;;;;;36.10;41.64;160695.16;1766399;81;21192;-86
2021/06/07 01:50:58;;;;;;;1.50;1.20;;;;;;;36.09;41.63;160692.48;1747539;81;21180;-86
2021/06/07 01:53:32;;;;;;;1.70;1.40;;;;;;;36.11;41.57;160696.47;1788704;80;21312;-85
2021/06/07 01:56:07;;;;;;;1.52;1.42;;;;;;;36.12;41.49;160700.47;1761567;80;21747;-84
2021/06/07 01:58:40;;;;;;;2.05;1.50;;;;;;;36.14;41.45;160704.52;1742696;81;21221;-86
2021/06/07 02:01:16;;;;;;;3.62;1.80;;;;;;;36.07;41.45;160685.75;1769683;81;21284;-86
2021/06/07 02:03:49;;;;;;;3.10;1.45;;;;;;;36.04;41.49;160676.41;1769746;81;21193;-86
2021/06/07 02:06:26;;;;;;;2.10;1.90;;;;;;;36.00;41.50;160665.67;1749703;81;21165;-86
2021/06/07 02:08:58;;;;;;;1.67;1.40;;;;;;;35.95;41.55;160653.59;1743818;81;21165;-86
2021/06/07 02:11:31;;;;;;;3.37;1.82;;;;;;;35.94;41.56;160650.91;1740101;81;21316;-87
2021/06/07 02:14:05;;;;;;;2.47;1.70;;;;;;;35.88;41.61;160634.88;1766521;81;21201;-86
2021/06/07 02:16:39;;;;;;;1.98;1.32;;;;;;;35.85;41.66;160625.53;1766504;80;21252;-87
2021/06/07 02:19:11;;;;;;;1.87;1.50;;;;;;;35.80;41.69;160613.50;1766204;80;21173;-87
2021/06/07 02:21:43;;;;;;;3.17;1.47;;;;;;;35.78;41.73;160608.14;1749474;81;21685;-88
2021/06/07 02:24:16;;;;;;;2.08;1.60;;;;;;;35.75;41.77;160600.09;1788860;80;21173;-87
2021/06/07 02:26:48;;;;;;;2.02;1.70;;;;;;;35.78;41.73;160606.77;1784589;80;21177;-87
2021/06/07 02:29:20;;;;;;;2.08;1.50;;;;;;;35.82;41.68;160618.80;1739203;82;21194;-88
2021/06/07 02:31:52;;;;;;;2.47;1.50;;;;;;;35.82;41.65;160618.80;1741119;81;21188;-88
2021/06/07 02:34:24;;;;;;;2.92;1.80;;;;;;;35.78;41.72;160606.77;1747748;81;21841;-87
2021/06/07 02:36:57;;;;;;;2.67;1.90;;;;;;;35.75;41.73;160598.78;1769683;81;21783;-87
2021/06/07 02:39:29;;;;;;;3.37;1.60;;;;;;;35.79;41.72;160609.45;1769702;81;21304;-86
2021/06/07 02:42:01;;;;;;;2.83;1.70;;;;;;;35.81;41.68;160616.17;1766775;81;21194;-87
2021/06/07 02:44:33;;;;;;;4.53;1.82;;;;;;;35.80;41.67;160613.50;1766620;81;21173;-86
2021/06/07 02:47:06;;;;;;;2.52;1.50;;;;;;;35.86;41.65;160628.20;1766981;81;21867;-87
2021/06/07 02:49:39;;;;;;;1.90;1.60;;;;;;;35.85;41.61;160625.53;1766530;81;21228;-86
2021/06/07 02:52:11;;;;;;;2.08;1.80;;;;;;;35.86;41.60;160628.20;1749601;81;21169;-87
2021/06/07 02:54:45;;;;;;;1.98;1.47;;;;;;;35.88;41.59;160633.56;1788642;80;21207;-87
2021/06/07 02:57:18;;;;;;;2.92;1.70;;;;;;;35.82;41.67;160617.50;1755901;80;21210;-86
2021/06/07 02:59:50;;;;;;;2.62;1.52;;;;;;;35.80;41.72;160612.13;1757425;79;21158;-87
2021/06/07 03:02:23;;;;;;;2.40;1.70;;;;;;;35.80;41.73;160612.13;1788096;80;21342;-86
2021/06/07 03:04:55;;;;;;;2.00;1.80;;;;;;;35.80;41.72;160613.50;1787300;80;21402;-87
2021/06/07 03:07:27;;;;;;;2.50;1.60;;;;;;;35.81;41.74;160614.81;1780893;80;21247;-87
2021/06/07 03:10:00;;;;;;;2.90;1.75;;;;;;;35.82;41.74;160617.50;1786003;80;21711;-86
2021/06/07 03:12:33;;;;;;;2.17;1.50;;;;;;;35.77;41.82;160604.09;1788689;80;21870;-87
2021/06/07 03:15:10;;;;;;;3.02;1.95;;;;;;;35.67;41.96;160578.72;1783173;80;21164;-87
2021/06/07 03:17:44;;;;;;;1.57;1.45;;;;;;;35.68;42.01;160581.39;1785557;80;21628;-86
2021/06/07 03:20:17;;;;;;;3.40;2.10;;;;;;;35.61;42.18;160561.31;1787254;80;21208;-85
2021/06/07 03:22:49;;;;;;;2.67;1.72;;;;;;;35.60;42.24;160559.95;1785365;80;21890;-86
2021/06/07 03:25:21;;;;;;;4.58;1.70;;;;;;;35.61;42.25;160562.62;1788854;80;21796;-86
2021/06/07 03:27:54;;;;;;;3.95;1.80;;;;;;;35.61;42.27;160562.62;1756212;82;21162;-86
2021/06/07 03:30:26;;;;;;;3.40;1.82;;;;;;;35.60;42.35;160559.95;1788255;80;21347;-86
2021/06/07 03:32:58;;;;;;;2.77;1.90;;;;;;;35.61;42.37;160561.31;1788497;80;21672;-87
2021/06/07 03:35:31;;;;;;;2.20;1.95;;;;;;;35.65;42.34;160573.34;1788665;80;21359;-87
2021/06/07 03:38:04;;;;;;;1.75;1.57;;;;;;;35.72;42.29;160590.75;1781594;80;21195;-86
2021/06/07 03:40:39;;;;;;;3.27;2.00;;;;;;;35.74;42.26;160596.09;1780921;80;21180;-86
2021/06/07 03:43:11;;;;;;;4.20;2.22;;;;;;;35.78;42.23;160606.77;1781747;80;21248;-84
2021/06/07 03:45:44;;;;;;;4.00;1.80;;;;;;;35.78;42.25;160608.14;1780914;80;21172;-84
2021/06/07 03:48:48;;;;;;;2.20;1.70;;;;;;;35.79;42.27;160610.81;1778536;79;21211;-87
2021/06/07 03:51:22;;;;;;;3.72;1.90;;;;;;;35.86;42.21;160629.53;1783777;78;21296;-83
2021/06/07 03:53:54;;;;;;;2.98;1.85;;;;;;;35.86;42.25;160628.20;1732110;80;21211;-86
2021/06/07 03:56:27;;;;;;;4.42;1.90;;;;;;;35.83;42.31;160620.17;1771777;80;21216;-88
2021/06/07 03:58:59;;;;;;;2.47;2.02;;;;;;;35.85;42.33;160625.53;1767576;79;21198;-86
2021/06/07 04:01:32;;;;;;;2.90;2.00;;;;;;;35.85;42.34;160626.84;1762896;79;21324;-86
2021/06/07 04:04:05;;;;;;;2.42;2.17;;;;;;;35.89;42.31;160637.56;1758494;79;21239;-86
2021/06/07 04:06:38;;;;;;;3.98;1.92;;;;;;;35.87;42.33;160632.20;1766627;79;21259;-85
2021/06/07 04:09:10;;;;;;;4.58;2.20;;;;;;;35.94;42.31;160649.59;1764959;79;21817;-84
2021/06/07 04:11:43;;;;;;;4.45;2.25;;;;;;;35.98;42.26;160661.62;1764001;79;21866;-86
2021/06/07 04:14:16;;;;;;;2.22;1.80;;;;;;;35.97;42.34;160658.95;1763012;79;21377;-84
2021/06/07 04:16:48;;;;;;;2.95;2.02;;;;;;;35.96;42.31;160656.27;1764698;79;21236;-86
2021/06/07 04:19:21;;;;;;;5.20;2.25;;;;;;;35.99;42.25;160663.05;1768285;79;21246;-83
2021/06/07 04:21:55;;;;;;;3.90;2.37;;;;;;;35.93;42.38;160646.92;1787626;80;21370;-85
2021/06/07 04:24:27;;;;;;;2.62;2.15;;;;;;;35.86;42.53;160628.20;1788453;80;21331;-85
2021/06/07 04:26:59;;;;;;;2.37;2.08;;;;;;;35.81;42.67;160616.17;1788706;80;21177;-85
2021/06/07 04:29:32;;;;;;;2.25;2.02;;;;;;;35.78;42.76;160608.14;1775802;80;21310;-86
2021/06/07 04:32:05;;;;;;;2.12;1.72;;;;;;;35.81;42.85;160614.81;1783859;80;21350;-86
2021/06/07 04:34:37;;;;;;;2.10;1.90;;;;;;;35.82;42.87;160617.50;1752845;81;21161;-86
2021/06/07 04:37:09;;;;;;;3.15;2.00;;;;;;;35.82;42.83;160618.80;1759035;81;21728;-87
2021/06/07 04:39:42;;;;;;;2.87;1.82;;;;;;;35.90;42.77;160638.87;1763331;81;21170;-85
2021/06/07 04:42:14;;;;;;;2.27;2.02;;;;;;;35.93;42.75;160646.92;1740236;81;21355;-84
2021/06/07 04:44:46;;;;;;;2.15;1.87;;;;;;;35.90;42.78;160640.23;1757404;81;21170;-86
2021/06/07 04:47:19;;;;;;;2.87;1.80;;;;;;;35.94;42.78;160649.59;1758734;81;21316;-86
2021/06/07 04:49:51;;;;;;;2.83;1.95;;;;;;;35.91;42.85;160641.56;1758887;80;21359;-86
2021/06/07 04:52:23;;;;;;;2.30;2.10;;;;;;;35.94;42.85;160649.59;1759135;80;21320;-86
2021/06/07 04:54:55;;;;;;;2.30;1.87;;;;;;;35.96;42.80;160656.27;1788755;80;21307;-86
2021/06/07 04:57:27;;;;;;;2.33;1.90;;;;;;;35.99;42.85;160664.36;1788686;80;21363;-86
2021/06/07 05:00:00;;;;;;;2.10;1.90;;;;;;;36.10;42.68;160695.16;1756200;82;21177;-83
2021/06/07 05:02:32;;;;;;;2.87;2.12;;;;;;;36.11;42.67;160697.78;1726571;82;21277;-84
2021/06/07 05:05:06;;;;;;;3.58;2.65;;;;;;;36.13;42.67;160703.16;1755481;81;21177;-86
2021/06/07 05:07:38;;;;;;;2.20;1.95;;;;;;;36.09;42.76;160691.11;1756284;82;21184;-85
2021/06/07 05:10:10;;;;;;;4.00;2.37;;;;;;;36.09;42.79;160692.48;1755952;82;21169;-86
2021/06/07 05:12:43;;;;;;;5.08;2.40;;;;;;;36.13;42.76;160703.16;1756367;82;21673;-85
2021/06/07 05:15:16;;;;;;;2.60;2.02;;;;;;;36.16;42.82;160709.87;1756513;82;21264;-85
2021/06/07 05:17:48;;;;;;;3.45;1.90;;;;;;;36.19;42.83;160717.86;1756265;82;21665;-85
2021/06/07 05:20:25;;;;;;;3.37;1.98;;;;;;;36.21;42.92;160724.59;1756612;82;21312;-85
2021/06/07 05:22:58;;;;;;;4.70;2.47;;;;;;;36.23;43.01;160729.91;1756247;82;21252;-85
2021/06/07 05:25:33;;;;;;;4.30;2.20;;;;;;;36.26;43.11;160736.62;1756316;82;21213;-85
2021/06/07 05:28:07;;;;;;;3.70;2.55;;;;;;;36.16;43.35;160709.87;1756316;82;21688;-85
2021/06/07 05:30:42;;;;;;;2.33;2.10;;;;;;;36.19;43.46;160719.23;1756118;82;21182;-85
2021/06/07 05:33:14;;;;;;;4.37;2.00;;;;;;;36.23;43.53;160728.59;1756291;82;21225;-84
2021/06/07 05:35:51;;;;;;;3.62;2.55;;;;;;;36.27;43.61;160740.63;1756176;82;21225;-86
2021/06/07 05:38:23;;;;;;;2.77;2.00;;;;;;;36.35;43.68;160762.02;1756363;82;21313;-86
2021/06/07 05:40:59;;;;;;;2.37;2.17;;;;;;;36.46;43.69;160791.50;1756280;82;21237;-85
2021/06/07 05:43:31;;;;;;;3.45;2.42;;;;;;;36.50;43.77;160800.92;1756515;82;21712;-86
2021/06/07 05:46:04;;;;;;;2.27;1.90;;;;;;;36.53;43.75;160810.28;1755609;82;21192;-85
2021/06/07 05:48:37;;;;;;;2.20;2.00;;;;;;;36.60;43.78;160829.00;1756239;82;21213;-85
2021/06/07 05:51:09;;;;;;;2.40;2.12;;;;;;;36.67;43.73;160847.75;1729130;82;21169;-84
2021/06/07 05:53:43;;;;;;;2.25;2.05;;;;;;;36.70;43.74;160855.75;1726285;83;21225;-84
2021/06/07 05:56:16;;;;;;;3.20;2.37;;;;;;;36.73;43.81;160862.48;1726243;82;21265;-83
2021/06/07 05:58:49;;;;;;;3.00;2.52;;;;;;;36.80;43.83;160882.56;1718484;82;21339;-84
2021/06/07 06:01:22;;;;;;;3.77;2.80;;;;;;;36.81;44.09;160885.20;1784980;80;21338;-84
2021/06/07 06:03:54;;;;;;;4.10;2.77;;;;;;;36.87;44.14;160899.92;1781450;79;21263;-84
2021/06/07 06:06:26;;;;;;;3.25;2.42;;;;;;;36.92;44.28;160914.75;1780840;80;21212;-85
2021/06/07 06:08:58;;;;;;;4.35;2.70;;;;;;;36.95;44.43;160921.42;1776185;80;21278;-80
2021/06/07 06:11:31;;;;;;;2.98;2.60;;;;;;;36.94;44.56;160920.06;1779602;80;21668;-80
2021/06/07 06:14:05;;;;;;;3.25;2.60;;;;;;;36.93;44.83;160916.06;1769475;81;21180;-80
2021/06/07 06:16:37;;;;;;;3.17;2.25;;;;;;;36.98;44.96;160930.78;1769469;79;21184;-80
2021/06/07 06:19:11;;;;;;;2.90;2.50;;;;;;;37.04;44.93;160946.83;1771905;80;21152;-82
2021/06/07 06:21:45;;;;;;;4.58;2.80;;;;;;;37.01;45.17;160938.83;1771470;79;21355;-81
2021/06/07 06:24:18;;;;;;;7.47;2.87;;;;;;;37.10;45.17;160964.23;1788496;79;21159;-80
2021/06/07 06:26:50;;;;;;;3.05;2.67;;;;;;;37.15;45.13;160976.33;1758552;81;21328;-80
2021/06/07 06:29:22;;;;;;;6.72;3.00;;;;;;;37.19;45.11;160988.37;1758854;81;21221;-80
2021/06/07 06:31:56;;;;;;;3.30;2.72;;;;;;;37.30;44.95;161017.83;1758521;80;21363;-81
2021/06/07 06:34:28;;;;;;;3.83;2.72;;;;;;;37.28;44.93;161012.47;1759040;80;21315;-81
2021/06/07 06:37:00;;;;;;;3.40;2.90;;;;;;;37.32;44.93;161021.83;1758819;81;21792;-81
2021/06/07 06:39:33;;;;;;;6.03;2.65;;;;;;;37.33;44.94;161025.83;1759011;80;21363;-80
2021/06/07 06:42:06;;;;;;;4.17;2.85;;;;;;;37.38;44.91;161039.28;1758737;81;21340;-79
2021/06/07 06:44:38;;;;;;;5.55;2.98;;;;;;;37.38;44.87;161039.28;1758536;80;21150;-81
2021/06/07 06:47:11;;;;;;;7.25;3.47;;;;;;;37.35;44.85;161031.25;1758704;81;21708;-80
2021/06/07 06:49:43;;;;;;;4.47;2.90;;;;;;;37.34;44.88;161027.19;1759259;80;21720;-82
2021/06/07 06:52:15;;;;;;;7.03;3.30;;;;;;;37.35;44.90;161029.94;1747921;81;21355;-82
2021/06/07 06:54:47;;;;;;;6.65;3.55;;;;;;;37.35;44.93;161029.94;1758911;81;21221;-82
2021/06/07 06:57:20;;;;;;;4.28;3.00;;;;;;;37.32;44.97;161023.19;1758981;81;21379;-81
2021/06/07 06:59:54;;;;;;;8.03;2.95;;;;;;;37.33;45.16;161025.83;1759019;81;21844;-81
2021/06/07 07:02:28;;;;;;;4.83;3.35;;;;;;;37.33;45.28;161024.50;1758740;81;21371;-81
2021/06/07 07:05:01;;;;;;;9.48;3.80;;;;;;;37.41;45.27;161047.34;1758929;81;21324;-82
2021/06/07 07:07:33;;;;;;;4.53;3.27;;;;;;;37.44;45.26;161054.02;1758809;81;21698;-82
2021/06/07 07:10:07;;;;;;;5.83;3.75;;;;;;;37.54;45.12;161082.16;1758990;81;21831;-81
2021/06/07 07:12:40;;;;;;;8.05;3.05;;;;;;;37.57;45.14;161088.84;1758930;81;21218;-81
2021/06/07 07:15:13;;;;;;;4.15;2.70;;;;;;;37.56;45.16;161086.16;1740797;81;21178;-82
2021/06/07 07:17:46;;;;;;;4.92;3.35;;;;;;;37.57;45.20;161088.84;1758881;81;21773;-82
2021/06/07 07:20:19;;;;;;;6.97;3.37;;;;;;;37.59;45.22;161094.20;1758892;81;21690;-81
2021/06/07 07:22:52;;;;;;;5.28;2.95;;;;;;;37.59;45.29;161095.53;1759087;81;21182;-82
2021/06/07 07:25:24;;;;;;;4.35;2.87;;;;;;;37.66;45.24;161114.31;1759234;81;21244;-82
2021/06/07 07:27:56;;;;;;;4.95;2.83;;;;;;;37.70;45.25;161124.98;1759147;81;21202;-81
2021/06/07 07:30:31;;;;;;;5.97;2.98;;;;;;;37.71;45.33;161127.67;1759207;81;21189;-81
2021/06/07 07:33:03;;;;;;;4.60;3.02;;;;;;;37.74;45.51;161135.72;1759253;81;21181;-82
2021/06/07 07:35:36;;;;;;;4.08;2.60;;;;;;;37.82;45.48;161155.88;1759144;81;21213;-82
2021/06/07 07:38:08;;;;;;;3.92;2.70;;;;;;;37.89;45.53;161175.97;1759055;81;21181;-81
2021/06/07 07:40:42;;;;;;;3.85;2.92;;;;;;;38.00;45.43;161205.44;1759094;81;21692;-83
2021/06/07 07:43:14;;;;;;;5.80;2.62;;;;;;;38.06;45.33;161222.86;1759211;81;21221;-81
2021/06/07 07:45:46;;;;;;;5.20;2.80;;;;;;;38.10;45.33;161232.22;1759205;81;21198;-83
2021/06/07 07:48:19;;;;;;;3.75;2.42;;;;;;;38.16;45.26;161248.28;1759296;81;21779;-82
2021/06/07 07:50:51;;;;;;;4.78;2.83;;;;;;;38.20;45.20;161260.33;1759202;81;21185;-82
2021/06/07 07:53:27;;;;;;;5.17;2.87;;;;;;;38.24;45.18;161269.80;1759240;81;21240;-82
2021/06/07 07:55:58;;;;;;;3.15;2.50;;;;;;;38.27;45.17;161277.81;1759182;81;21241;-82
2021/06/07 07:58:30;;;;;;;4.03;2.83;;;;;;;38.33;45.22;161293.91;1759336;81;21721;-82
2021/06/07 08:01:03;;;;;;;4.17;2.98;;;;;;;38.38;45.27;161307.28;1759126;81;21177;-82
2021/06/07 08:03:36;;;;;;;6.00;2.58;;;;;;;38.44;45.26;161324.70;1759177;81;21166;-82
2021/06/07 08:06:08;;;;;;;3.08;2.50;;;;;;;38.51;45.21;161343.50;1759143;81;21181;-82
2021/06/07 08:08:40;;;;;;;3.87;2.37;;;;;;;38.59;45.15;161363.59;1759190;81;21217;-82
2021/06/07 08:11:13;;;;;;;3.52;2.42;;;;;;;38.63;45.10;161375.66;1759176;81;21189;-82
2021/06/07 08:13:45;;;;;;;4.47;2.70;;;;;;;38.71;44.93;161397.13;1759154;81;21186;-81
2021/06/07 08:16:18;;;;;;;3.60;1.98;;;;;;;38.78;44.86;161415.88;1759163;81;21206;-82
2021/06/07 08:18:51;;;;;;;3.60;2.47;;;;;;;38.86;44.73;161437.36;1759181;81;21217;-82
2021/06/07 08:21:23;;;;;;;2.92;2.25;;;;;;;38.89;44.65;161444.05;1759227;81;21197;-81
2021/06/07 08:23:56;;;;;;;4.33;2.05;;;;;;;38.95;44.61;161462.78;1759182;81;22106;-81
2021/06/07 08:26:28;;;;;;;3.12;2.33;;;;;;;39.02;44.42;161480.22;1758766;81;21363;-83
2021/06/07 08:29:01;;;;;;;2.42;2.17;;;;;;;39.06;44.20;161490.97;1758900;81;21356;-82
2021/06/07 08:31:34;;;;;;;5.03;2.65;;;;;;;39.08;44.03;161496.39;1758928;81;21221;-82
2021/06/07 08:34:08;;;;;;;2.30;2.00;;;;;;;39.09;43.90;161500.39;1758832;81;21182;-82
2021/06/07 08:36:41;;;;;;;2.42;2.02;;;;;;;39.07;43.81;161494.97;1758917;81;21301;-82
2021/06/07 08:39:13;;;;;;;3.65;2.30;;;;;;;39.08;43.65;161497.70;1759099;81;21911;-82
2021/06/07 08:41:46;;;;;;;4.35;2.27;;;;;;;39.13;43.47;161511.13;1759048;81;21225;-82
2021/06/07 08:44:19;;;;;;;3.45;2.33;;;;;;;39.11;43.38;161504.44;1759196;81;21174;-82
2021/06/07 08:51:09;;;;;;;3.02;2.20;;;;;;;39.13;43.20;161509.77;1758862;81;21154;-82
2021/06/07 08:53:46;;;;;;;2.58;2.00;;;;;;;39.12;43.09;161508.44;1758645;81;21257;-82
2021/06/07 08:56:18;;;;;;;2.25;2.00;;;;;;;39.12;43.01;161507.13;1758915;81;21373;-82
2021/06/07 08:58:51;;;;;;;2.60;2.33;;;;;;;39.12;42.97;161508.44;1758917;81;21379;-82
2021/06/07 09:01:25;;;;;;;3.75;2.47;;;;;;;39.13;42.99;161511.13;1759735;81;21728;-82
2021/06/07 09:04:14;;;;;;;2.60;1.90;;;;;;;39.12;42.93;161507.13;1759129;81;21185;-82
2021/06/07 09:06:49;;;;;;;3.22;2.02;;;;;;;39.13;42.96;161511.13;1759040;81;21214;-82
2021/06/07 09:09:24;;;;;;;1.80;1.70;;;;;;;39.18;42.95;161524.50;1758905;81;21190;-82
2021/06/07 09:12:06;;;;;;;3.75;1.90;;;;;;;39.22;42.98;161533.94;1759149;81;21811;-83
2021/06/07 09:14:39;;;;;;;3.25;2.00;;;;;;;39.21;43.03;161532.56;1759340;81;21816;-82
2021/06/07 09:17:19;;;;;;;3.47;2.10;;;;;;;39.26;43.04;161544.63;1759243;81;21217;-82
2021/06/07 09:20:14;;;;;;;3.27;2.10;;;;;;;39.33;43.02;161563.44;1759298;81;21586;-82
2021/06/07 09:22:52;;;;;;;2.52;2.20;;;;;;;39.40;43.02;161583.55;1758865;81;21305;-83
2021/06/07 09:25:28;;;;;;;4.30;1.87;;;;;;;39.45;43.07;161595.61;1759065;81;21190;-82
2021/06/07 09:28:11;;;;;;;3.83;2.05;;;;;;;39.44;43.08;161592.92;1758931;81;21237;-82
2021/06/07 09:30:46;;;;;;;3.25;2.02;;;;;;;39.51;43.00;161611.72;1758251;81;21883;-82
2021/06/07 09:33:29;;;;;;;3.40;2.27;;;;;;;39.56;42.96;161625.16;1759195;80;21186;-83
2021/06/07 09:36:30;;;;;;;2.87;2.25;;;;;;;39.93;42.54;161724.47;1756679;81;21375;-83
2021/06/07 09:39:16;;;;;;;3.40;1.87;;;;;;;39.62;42.97;161642.59;1759103;81;21324;-82
2021/06/07 09:42:13;;;;;;;2.02;1.82;;;;;;;39.67;42.99;161654.66;1759191;81;21808;-82
2021/06/07 09:44:57;;;;;;;2.62;2.08;;;;;;;39.70;42.93;161662.72;1759219;81;21716;-82
2021/06/07 09:47:35;;;;;;;3.30;2.10;;;;;;;39.73;42.86;161672.09;1759090;81;21360;-82
2021/06/07 09:50:10;;;;;;;1.75;1.57;;;;;;;39.87;42.66;161708.28;1758894;81;21332;-82
2021/06/07 09:52:45;;;;;;;2.02;1.77;;;;;;;39.90;42.63;161717.67;1758984;81;21359;-82
2021/06/07 09:55:27;;;;;;;3.40;1.95;;;;;;;39.95;42.44;161731.16;1758976;81;21360;-81
2021/06/07 09:58:02;;;;;;;7.45;1.92;;;;;;;39.96;42.35;161735.16;1759001;81;21360;-82
2021/06/07 10:00:48;;;;;;;2.35;1.92;;;;;;;40.03;42.25;161752.59;1759110;81;22348;-82
2021/06/07 10:03:38;;;;;;;3.70;2.20;;;;;;;40.11;42.29;161775.41;1759131;81;21767;-81
2021/06/07 10:06:36;;;;;;;3.02;1.90;;;;;;;40.15;42.28;161784.80;1759009;81;21328;-82
2021/06/07 10:09:11;;;;;;;6.35;2.52;;;;;;;40.15;42.25;161784.80;1759235;81;21194;-83
2021/06/07 10:11:45;;;;;;;2.37;1.87;;;;;;;40.25;42.05;161811.63;1758920;81;21391;-81
2021/06/07 10:14:21;;;;;;;2.75;1.92;;;;;;;40.29;41.89;161822.37;1759078;81;21823;-82
2021/06/07 10:17:04;;;;;;;3.90;1.82;;;;;;;40.35;41.73;161839.86;1758817;81;21824;-82
2021/06/07 10:19:47;;;;;;;2.42;1.62;;;;;;;40.42;41.51;161858.63;1758990;81;21166;-83
2021/06/07 10:22:14;;;;;;;5.85;2.20;;;;;;;40.50;41.41;161878.75;1758802;81;21209;-82
2021/06/07 10:24:46;;;;;;;4.87;2.00;;;;;;;40.56;41.15;161896.20;1759027;81;21183;-83
2021/06/07 10:27:19;;;;;;;2.67;2.20;;;;;;;40.61;41.12;161909.66;1758845;80;21383;-83
2021/06/07 10:29:52;;;;;;;2.77;2.00;;;;;;;40.56;41.23;161894.89;1758985;81;21328;-83
2021/06/07 10:32:29;;;;;;;1.92;1.47;;;;;;;40.63;41.12;161914.97;1758853;81;21237;-82
2021/06/07 10:35:04;;;;;;;2.70;1.82;;;;;;;40.63;41.12;161914.97;1758956;81;21728;-82
2021/06/07 10:37:37;;;;;;;2.58;1.62;;;;;;;40.69;40.93;161931.09;1759020;80;21748;-83
2021/06/07 10:40:20;;;;;;;2.50;1.57;;;;;;;40.75;41.08;161947.23;1766912;80;21320;-82
2021/06/07 10:42:58;;;;;;;2.72;1.90;;;;;;;40.86;40.99;161975.44;1756167;81;21363;-83
2021/06/07 10:45:33;;;;;;;2.35;1.62;;;;;;;40.92;40.92;161992.89;1759004;81;21173;-82
2021/06/07 10:48:07;;;;;;;2.10;1.57;;;;;;;41.03;40.77;162022.41;1758847;81;21237;-83
2021/06/07 10:50:44;;;;;;;2.95;1.67;;;;;;;41.08;40.63;162037.17;1759111;81;21677;-82
2021/06/07 10:53:28;;;;;;;3.70;1.90;;;;;;;41.08;40.50;162035.86;1758972;81;21383;-82
2021/06/07 10:56:09;;;;;;;3.35;2.02;;;;;;;41.13;40.41;162050.62;1758879;81;21174;-83
2021/06/07 10:58:57;;;;;;;4.47;1.92;;;;;;;41.15;40.25;162054.69;1759021;81;21383;-83
2021/06/07 11:01:59;;;;;;;1.90;1.50;;;;;;;41.25;40.25;162081.52;1758934;81;21186;-82
2021/06/07 11:04:37;;;;;;;1.75;1.50;;;;;;;41.29;40.21;162092.28;1759056;81;21178;-83
2021/06/07 11:07:16;;;;;;;1.70;1.40;;;;;;;41.33;39.75;162104.34;1759179;80;22257;-82
2021/06/07 11:10:27;;;;;;;3.92;1.65;;;;;;;41.43;39.60;162129.88;1758898;81;21425;-81
2021/06/07 11:13:05;;;;;;;3.72;1.70;;;;;;;41.48;39.39;162144.64;1758878;80;21371;-82
2021/06/07 11:16:00;;;;;;;2.03;1.30;;;;;;;41.52;39.19;162154.03;1759241;81;21888;-82
2021/06/07 11:18:38;;;;;;;2.17;1.15;;;;;;;41.54;39.01;162160.72;1759027;81;21205;-82
2021/06/07 11:21:32;;;;;;;2.20;1.70;;;;;;;41.58;38.85;162170.17;1759131;81;21321;-82
2021/06/07 11:24:26;;;;;;;3.45;1.77;;;;;;;41.67;38.71;162194.37;1759039;81;21205;-82
2021/06/07 11:27:03;;;;;;;1.75;1.30;;;;;;;41.63;38.78;162183.63;1759492;81;21305;-82
2021/06/07 11:29:35;;;;;;;2.12;1.50;;;;;;;41.68;38.75;162197.02;1759008;81;21205;-82
2021/06/07 11:32:14;;;;;;;2.75;1.30;;;;;;;41.68;38.75;162197.02;1759322;80;21225;-83
2021/06/07 11:34:52;;;;;;;2.42;1.60;;;;;;;41.76;38.67;162219.84;1759240;81;21170;-83
2021/06/07 11:37:36;;;;;;;2.05;1.35;;;;;;;41.74;38.66;162214.47;1759216;81;21224;-82
2021/06/07 11:40:10;;;;;;;2.33;1.30;;;;;;;41.69;39.07;162199.70;1759083;81;21217;-83
2021/06/07 11:42:56;;;;;;;1.82;1.42;;;;;;;41.78;38.72;162223.91;1759125;81;21193;-83
2021/06/07 11:45:41;;;;;;;2.00;1.40;;;;;;;41.87;38.55;162248.06;1759188;81;21181;-82
2021/06/07 11:48:14;;;;;;;1.80;1.60;;;;;;;41.95;38.38;162272.28;1759194;81;21229;-82
2021/06/07 11:50:46;;;;;;;2.00;1.30;;;;;;;42.01;38.27;162287.06;1759183;81;21181;-83
2021/06/07 11:53:21;;;;;;;1.05;1.02;;;;;;;41.99;38.23;162283.05;1759399;81;21692;-82
2021/06/07 11:55:56;;;;;;;1.30;1.20;;;;;;;42.03;38.17;162293.75;1759186;81;21236;-82
2021/06/07 11:58:29;;;;;;;1.92;1.77;;;;;;;42.09;38.01;162309.91;1759381;81;21210;-82
2021/06/07 12:01:03;;;;;;;4.15;1.65;;;;;;;42.08;37.96;162307.20;1759121;81;21237;-82
2021/06/07 12:03:37;;;;;;;1.95;1.70;;;;;;;42.12;37.96;162317.97;1759224;81;21193;-82